sensor_id;sensor_type;location;lat;lon;timestamp;P1;P2;P0
44881;PMS5003;30612;38.304;23.786;2024-02-21T00:01:21;12.00;10.00;6.00
44881;PMS5003;30612;38.304;23.786;2024-02-21T00:03:49;11.80;7.40;3.60
44881;PMS5003;30612;38.304;23.786;2024-02-21T00:06:17;24.80;17.20;9.00
44881;PMS5003;30612;38.304;23.786;2024-02-21T00:08:44;14.40;12.00;7.40
44881;PMS5003;30612;38.304;23.786;2024-02-21T00:11:11;9.00;9.00;4.80
44881;PMS5003;30612;38.304;23.786;2024-02-21T00:13:39;9.20;7.00;3.60
44881;PMS5003;30612;38.304;23.786;2024-02-21T00:16:06;11.00;9.00;4.00
44881;PMS5003;30612;38.304;23.786;2024-02-21T00:18:34;14.60;12.00;6.00
44881;PMS5003;30612;38.304;23.786;2024-02-21T00:21:01;11.80;9.60;4.00
44881;PMS5003;30612;38.304;23.786;2024-02-21T00:23:28;7.00;7.00;3.60
44881;PMS5003;30612;38.304;23.786;2024-02-21T00:25:55;7.40;7.40;4.00
44881;PMS5003;30612;38.304;23.786;2024-02-21T00:28:23;12.40;10.40;4.80
44881;PMS5003;30612;38.304;23.786;2024-02-21T00:30:50;12.00;10.80;6.00
44881;PMS5003;30612;38.304;23.786;2024-02-21T00:33:19;3.40;3.00;0.00
44881;PMS5003;30612;38.304;23.786;2024-02-21T00:35:47;11.80;10.00;3.60
44881;PMS5003;30612;38.304;23.786;2024-02-21T00:38:14;10.00;10.00;6.00
44881;PMS5003;30612;38.304;23.786;2024-02-21T00:40:41;16.60;12.20;6.00
44881;PMS5003;30612;38.304;23.786;2024-02-21T00:43:09;8.60;7.00;3.00
44881;PMS5003;30612;38.304;23.786;2024-02-21T00:45:36;4.00;3.00;1.00
44881;PMS5003;30612;38.304;23.786;2024-02-21T00:48:04;4.00;3.80;2.20
44881;PMS5003;30612;38.304;23.786;2024-02-21T00:50:31;10.40;8.80;3.60
44881;PMS5003;30612;38.304;23.786;2024-02-21T00:52:58;4.00;4.00;3.00
44881;PMS5003;30612;38.304;23.786;2024-02-21T00:55:26;13.80;11.60;6.80
44881;PMS5003;30612;38.304;23.786;2024-02-21T00:57:53;10.20;10.20;6.20
44881;PMS5003;30612;38.304;23.786;2024-02-21T01:00:20;7.60;7.60;3.00
44881;PMS5003;30612;38.304;23.786;2024-02-21T01:02:48;4.20;3.20;1.40
44881;PMS5003;30612;38.304;23.786;2024-02-21T01:05:19;6.60;6.00;3.00
44881;PMS5003;30612;38.304;23.786;2024-02-21T01:07:46;4.40;4.40;1.00
44881;PMS5003;30612;38.304;23.786;2024-02-21T01:10:14;6.00;4.80;1.40
44881;PMS5003;30612;38.304;23.786;2024-02-21T01:12:42;6.40;6.40;3.00
44881;PMS5003;30612;38.304;23.786;2024-02-21T01:15:09;7.20;3.80;1.00
44881;PMS5003;30612;38.304;23.786;2024-02-21T01:17:37;9.00;5.20;1.00
44881;PMS5003;30612;38.304;23.786;2024-02-21T01:20:05;3.40;3.40;2.20
44881;PMS5003;30612;38.304;23.786;2024-02-21T01:22:33;6.00;6.00;3.40
44881;PMS5003;30612;38.304;23.786;2024-02-21T01:25:00;8.00;6.20;3.40
44881;PMS5003;30612;38.304;23.786;2024-02-21T01:27:28;6.00;6.00;3.00
44881;PMS5003;30612;38.304;23.786;2024-02-21T01:29:55;5.60;4.40;2.60
44881;PMS5003;30612;38.304;23.786;2024-02-21T01:32:23;6.80;6.80;1.40
44881;PMS5003;30612;38.304;23.786;2024-02-21T01:34:51;6.80;3.80;1.00
44881;PMS5003;30612;38.304;23.786;2024-02-21T01:37:19;4.40;4.40;2.20
44881;PMS5003;30612;38.304;23.786;2024-02-21T01:39:46;6.40;5.20;3.00
44881;PMS5003;30612;38.304;23.786;2024-02-21T01:42:13;9.20;8.20;4.00
44881;PMS5003;30612;38.304;23.786;2024-02-21T01:44:40;6.40;6.00;3.00
44881;PMS5003;30612;38.304;23.786;2024-02-21T01:47:09;9.60;8.20;4.00
44881;PMS5003;30612;38.304;23.786;2024-02-21T01:49:37;6.60;6.00;1.40
44881;PMS5003;30612;38.304;23.786;2024-02-21T01:52:04;5.60;5.60;3.00
44881;PMS5003;30612;38.304;23.786;2024-02-21T01:54:32;13.40;9.60;6.00
44881;PMS5003;30612;38.304;23.786;2024-02-21T01:56:59;10.80;9.60;4.00
44881;PMS5003;30612;38.304;23.786;2024-02-21T01:59:27;5.80;5.80;1.00
44881;PMS5003;30612;38.304;23.786;2024-02-21T02:01:55;10.00;9.60;4.80
44881;PMS5003;30612;38.304;23.786;2024-02-21T02:04:23;16.00;15.40;6.40
44881;PMS5003;30612;38.304;23.786;2024-02-21T02:06:51;16.00;11.20;6.00
44881;PMS5003;30612;38.304;23.786;2024-02-21T02:09:21;15.20;11.00;6.60
44881;PMS5003;30612;38.304;23.786;2024-02-21T02:11:49;12.20;9.00;6.00
44881;PMS5003;30612;38.304;23.786;2024-02-21T02:14:16;10.80;6.00;4.00
44881;PMS5003;30612;38.304;23.786;2024-02-21T02:16:45;7.00;6.00;3.00
44881;PMS5003;30612;38.304;23.786;2024-02-21T02:19:14;6.60;6.60;3.60
44881;PMS5003;30612;38.304;23.786;2024-02-21T02:21:46;6.00;6.00;3.00
44881;PMS5003;30612;38.304;23.786;2024-02-21T02:24:14;11.20;4.40;1.00
44881;PMS5003;30612;38.304;23.786;2024-02-21T02:26:41;6.00;6.00;3.00
44881;PMS5003;30612;38.304;23.786;2024-02-21T02:29:08;7.00;4.40;3.00
44881;PMS5003;30612;38.304;23.786;2024-02-21T02:31:36;1.00;0.00;0.00
44881;PMS5003;30612;38.304;23.786;2024-02-21T02:34:05;8.20;6.00;3.00
44881;PMS5003;30612;38.304;23.786;2024-02-21T02:36:32;4.80;4.80;3.20
44881;PMS5003;30612;38.304;23.786;2024-02-21T02:39:01;7.00;7.00;3.60
44881;PMS5003;30612;38.304;23.786;2024-02-21T02:41:28;7.00;7.00;3.00
44881;PMS5003;30612;38.304;23.786;2024-02-21T02:43:55;6.40;0.00;0.00
44881;PMS5003;30612;38.304;23.786;2024-02-21T02:46:23;5.60;5.60;3.00
44881;PMS5003;30612;38.304;23.786;2024-02-21T02:48:50;6.80;5.20;3.00
44881;PMS5003;30612;38.304;23.786;2024-02-21T02:51:18;7.00;7.00;3.40
44881;PMS5003;30612;38.304;23.786;2024-02-21T02:53:45;9.00;6.60;3.00
44881;PMS5003;30612;38.304;23.786;2024-02-21T02:56:16;6.00;5.60;3.00
44881;PMS5003;30612;38.304;23.786;2024-02-21T02:58:43;6.80;5.20;3.00
44881;PMS5003;30612;38.304;23.786;2024-02-21T03:01:11;8.20;8.20;3.00
44881;PMS5003;30612;38.304;23.786;2024-02-21T03:03:38;6.40;6.00;3.00
44881;PMS5003;30612;38.304;23.786;2024-02-21T03:06:06;6.00;6.00;3.00
44881;PMS5003;30612;38.304;23.786;2024-02-21T03:08:33;6.00;4.80;1.00
44881;PMS5003;30612;38.304;23.786;2024-02-21T03:11:01;4.80;4.80;3.00
44881;PMS5003;30612;38.304;23.786;2024-02-21T03:13:28;9.40;7.80;3.00
44881;PMS5003;30612;38.304;23.786;2024-02-21T03:15:55;11.00;8.60;3.20
44881;PMS5003;30612;38.304;23.786;2024-02-21T03:18:22;4.00;4.00;3.20
44881;PMS5003;30612;38.304;23.786;2024-02-21T03:20:50;9.40;9.40;4.80
44881;PMS5003;30612;38.304;23.786;2024-02-21T03:23:17;9.60;6.40;4.00
44881;PMS5003;30612;38.304;23.786;2024-02-21T03:25:45;8.80;7.00;2.60
44881;PMS5003;30612;38.304;23.786;2024-02-21T03:28:12;6.40;6.20;2.20
44881;PMS5003;30612;38.304;23.786;2024-02-21T03:30:40;9.00;6.60;3.00
44881;PMS5003;30612;38.304;23.786;2024-02-21T03:33:07;7.80;7.80;3.00
44881;PMS5003;30612;38.304;23.786;2024-02-21T03:35:34;6.00;6.00;3.00
44881;PMS5003;30612;38.304;23.786;2024-02-21T03:38:02;10.00;7.00;4.00
44881;PMS5003;30612;38.304;23.786;2024-02-21T03:40:29;8.40;5.60;3.00
44881;PMS5003;30612;38.304;23.786;2024-02-21T03:42:57;15.20;11.80;6.00
44881;PMS5003;30612;38.304;23.786;2024-02-21T03:45:24;8.20;8.20;4.00
44881;PMS5003;30612;38.304;23.786;2024-02-21T03:47:51;21.60;15.20;9.60
44881;PMS5003;30612;38.304;23.786;2024-02-21T03:50:19;11.40;9.80;6.00
44881;PMS5003;30612;38.304;23.786;2024-02-21T03:52:46;8.80;6.00;3.40
44881;PMS5003;30612;38.304;23.786;2024-02-21T03:55:14;11.80;10.00;4.00
44881;PMS5003;30612;38.304;23.786;2024-02-21T03:57:41;20.00;17.60;10.00
44881;PMS5003;30612;38.304;23.786;2024-02-21T04:00:08;15.20;13.20;6.80
44881;PMS5003;30612;38.304;23.786;2024-02-21T04:02:38;11.40;11.40;6.20
44881;PMS5003;30612;38.304;23.786;2024-02-21T04:05:05;10.20;6.80;4.00
44881;PMS5003;30612;38.304;23.786;2024-02-21T04:07:33;6.80;6.80;4.00
44881;PMS5003;30612;38.304;23.786;2024-02-21T04:10:00;9.00;7.80;3.40
44881;PMS5003;30612;38.304;23.786;2024-02-21T04:12:27;6.40;4.00;0.80
44881;PMS5003;30612;38.304;23.786;2024-02-21T04:14:54;7.80;7.80;4.00
44881;PMS5003;30612;38.304;23.786;2024-02-21T04:17:21;8.80;6.00;4.00
44881;PMS5003;30612;38.304;23.786;2024-02-21T04:19:49;5.20;4.00;0.20
44881;PMS5003;30612;38.304;23.786;2024-02-21T04:22:16;8.60;6.40;3.60
44881;PMS5003;30612;38.304;23.786;2024-02-21T04:24:43;5.20;5.20;3.00
44881;PMS5003;30612;38.304;23.786;2024-02-21T04:27:11;5.60;3.80;1.00
44881;PMS5003;30612;38.304;23.786;2024-02-21T04:29:38;4.00;4.00;3.00
44881;PMS5003;30612;38.304;23.786;2024-02-21T04:32:05;7.00;7.00;3.00
44881;PMS5003;30612;38.304;23.786;2024-02-21T04:34:33;4.20;3.80;1.00
44881;PMS5003;30612;38.304;23.786;2024-02-21T04:37:00;7.20;5.20;3.00
44881;PMS5003;30612;38.304;23.786;2024-02-21T04:39:27;9.60;5.60;3.00
44881;PMS5003;30612;38.304;23.786;2024-02-21T04:41:55;3.80;3.80;2.20
44881;PMS5003;30612;38.304;23.786;2024-02-21T04:44:22;7.00;7.00;4.00
44881;PMS5003;30612;38.304;23.786;2024-02-21T04:46:50;11.00;9.00;4.00
44881;PMS5003;30612;38.304;23.786;2024-02-21T04:49:18;8.80;8.60;3.80
44881;PMS5003;30612;38.304;23.786;2024-02-21T04:51:45;6.00;6.00;3.00
44881;PMS5003;30612;38.304;23.786;2024-02-21T04:54:13;10.40;10.40;6.00
44881;PMS5003;30612;38.304;23.786;2024-02-21T04:56:40;12.40;9.80;6.20
44881;PMS5003;30612;38.304;23.786;2024-02-21T04:59:08;2.20;1.40;0.00
44881;PMS5003;30612;38.304;23.786;2024-02-21T05:01:35;8.60;7.40;4.00
44881;PMS5003;30612;38.304;23.786;2024-02-21T05:04:03;8.20;6.20;3.00
44881;PMS5003;30612;38.304;23.786;2024-02-21T05:06:31;9.00;6.00;3.00
44881;PMS5003;30612;38.304;23.786;2024-02-21T05:08:58;7.00;5.20;1.00
44881;PMS5003;30612;38.304;23.786;2024-02-21T05:11:26;10.40;10.40;6.40
44881;PMS5003;30612;38.304;23.786;2024-02-21T05:13:53;13.80;10.80;7.00
44881;PMS5003;30612;38.304;23.786;2024-02-21T05:16:21;10.60;9.20;4.00
44881;PMS5003;30612;38.304;23.786;2024-02-21T05:18:48;12.20;9.40;5.60
44881;PMS5003;30612;38.304;23.786;2024-02-21T05:21:16;13.40;9.40;6.60
44881;PMS5003;30612;38.304;23.786;2024-02-21T05:23:43;12.00;9.60;4.80
44881;PMS5003;30612;38.304;23.786;2024-02-21T05:26:10;26.40;26.40;15.00
44881;PMS5003;30612;38.304;23.786;2024-02-21T05:28:38;20.40;16.80;10.40
44881;PMS5003;30612;38.304;23.786;2024-02-21T05:31:05;17.40;14.00;7.80
44881;PMS5003;30612;38.304;23.786;2024-02-21T05:33:32;11.80;8.20;4.40
44881;PMS5003;30612;38.304;23.786;2024-02-21T05:36:00;20.40;16.80;10.00
44881;PMS5003;30612;38.304;23.786;2024-02-21T05:38:27;15.80;15.00;7.20
44881;PMS5003;30612;38.304;23.786;2024-02-21T05:40:55;11.40;9.40;6.00
44881;PMS5003;30612;38.304;23.786;2024-02-21T05:43:22;10.60;8.20;6.00
44881;PMS5003;30612;38.304;23.786;2024-02-21T05:45:49;12.40;11.20;7.40
44881;PMS5003;30612;38.304;23.786;2024-02-21T05:48:17;16.40;13.00;6.20
44881;PMS5003;30612;38.304;23.786;2024-02-21T05:50:44;6.00;6.00;3.00
44881;PMS5003;30612;38.304;23.786;2024-02-21T05:53:11;13.80;13.00;8.20
44881;PMS5003;30612;38.304;23.786;2024-02-21T05:55:39;12.40;12.00;6.00
44881;PMS5003;30612;38.304;23.786;2024-02-21T05:58:07;8.20;6.80;4.00
44881;PMS5003;30612;38.304;23.786;2024-02-21T06:00:37;9.00;6.20;3.60
44881;PMS5003;30612;38.304;23.786;2024-02-21T06:03:04;11.40;9.00;4.00
44881;PMS5003;30612;38.304;23.786;2024-02-21T06:05:35;13.40;12.00;6.60
44881;PMS5003;30612;38.304;23.786;2024-02-21T06:08:04;10.00;10.00;6.00
44881;PMS5003;30612;38.304;23.786;2024-02-21T06:10:31;12.20;9.00;4.00
44881;PMS5003;30612;38.304;23.786;2024-02-21T06:12:59;11.80;7.00;4.00
44881;PMS5003;30612;38.304;23.786;2024-02-21T06:15:26;9.00;8.60;4.00
44881;PMS5003;30612;38.304;23.786;2024-02-21T06:17:54;2.00;2.00;1.00
44881;PMS5003;30612;38.304;23.786;2024-02-21T06:20:21;5.60;5.60;3.60
44881;PMS5003;30612;38.304;23.786;2024-02-21T06:22:49;4.40;4.40;1.00
44881;PMS5003;30612;38.304;23.786;2024-02-21T06:25:17;7.80;4.60;2.00
44881;PMS5003;30612;38.304;23.786;2024-02-21T06:27:44;7.80;5.00;2.00
44881;PMS5003;30612;38.304;23.786;2024-02-21T06:30:12;8.80;7.00;4.00
44881;PMS5003;30612;38.304;23.786;2024-02-21T06:32:39;9.40;6.60;4.00
44881;PMS5003;30612;38.304;23.786;2024-02-21T06:35:07;4.80;3.60;2.00
44881;PMS5003;30612;38.304;23.786;2024-02-21T06:37:35;3.60;3.20;1.40
44881;PMS5003;30612;38.304;23.786;2024-02-21T06:40:02;4.40;4.40;1.80
44881;PMS5003;30612;38.304;23.786;2024-02-21T06:42:31;5.40;5.40;2.00
44881;PMS5003;30612;38.304;23.786;2024-02-21T06:44:58;5.00;5.00;2.00
44881;PMS5003;30612;38.304;23.786;2024-02-21T06:47:26;5.60;4.00;1.00
44881;PMS5003;30612;38.304;23.786;2024-02-21T06:49:53;3.20;2.00;1.00
44881;PMS5003;30612;38.304;23.786;2024-02-21T06:52:21;4.60;2.80;1.40
44881;PMS5003;30612;38.304;23.786;2024-02-21T06:54:48;9.40;5.20;1.80
44881;PMS5003;30612;38.304;23.786;2024-02-21T06:57:15;3.80;2.00;1.00
44881;PMS5003;30612;38.304;23.786;2024-02-21T06:59:43;3.20;3.20;1.60
44881;PMS5003;30612;38.304;23.786;2024-02-21T07:02:10;5.00;5.00;1.80
44881;PMS5003;30612;38.304;23.786;2024-02-21T07:04:38;2.40;2.40;1.00
44881;PMS5003;30612;38.304;23.786;2024-02-21T07:07:05;2.20;2.20;2.00
44881;PMS5003;30612;38.304;23.786;2024-02-21T07:09:32;4.80;4.80;1.00
44881;PMS5003;30612;38.304;23.786;2024-02-21T07:12:01;2.00;2.00;1.00
44881;PMS5003;30612;38.304;23.786;2024-02-21T07:14:28;2.60;2.60;1.00
44881;PMS5003;30612;38.304;23.786;2024-02-21T07:16:55;2.00;2.00;0.80
44881;PMS5003;30612;38.304;23.786;2024-02-21T07:19:24;2.00;1.00;0.00
44881;PMS5003;30612;38.304;23.786;2024-02-21T07:21:51;2.20;2.00;1.00
44881;PMS5003;30612;38.304;23.786;2024-02-21T07:24:19;4.00;2.00;1.00
44881;PMS5003;30612;38.304;23.786;2024-02-21T07:26:46;1.20;1.20;0.60
44881;PMS5003;30612;38.304;23.786;2024-02-21T07:29:14;2.00;2.00;1.00
44881;PMS5003;30612;38.304;23.786;2024-02-21T07:31:41;1.20;1.20;1.00
44881;PMS5003;30612;38.304;23.786;2024-02-21T07:34:09;3.60;3.60;1.00
44881;PMS5003;30612;38.304;23.786;2024-02-21T07:36:37;1.80;1.80;1.00
44881;PMS5003;30612;38.304;23.786;2024-02-21T07:39:05;3.60;3.60;1.20
44881;PMS5003;30612;38.304;23.786;2024-02-21T07:41:33;2.00;2.00;0.00
44881;PMS5003;30612;38.304;23.786;2024-02-21T07:44:01;6.40;5.20;2.00
44881;PMS5003;30612;38.304;23.786;2024-02-21T07:46:30;5.40;4.60;2.00
44881;PMS5003;30612;38.304;23.786;2024-02-21T07:48:57;8.20;8.00;4.00
44881;PMS5003;30612;38.304;23.786;2024-02-21T07:51:27;9.20;8.60;5.20
44881;PMS5003;30612;38.304;23.786;2024-02-21T07:53:54;11.60;8.20;5.00
44881;PMS5003;30612;38.304;23.786;2024-02-21T07:56:22;9.20;8.60;5.00
44881;PMS5003;30612;38.304;23.786;2024-02-21T07:58:50;9.00;7.40;5.00
44881;PMS5003;30612;38.304;23.786;2024-02-21T08:01:20;9.00;6.80;4.80
44881;PMS5003;30612;38.304;23.786;2024-02-21T08:03:48;7.20;5.60;2.40
44881;PMS5003;30612;38.304;23.786;2024-02-21T08:06:15;8.40;6.00;4.00
44881;PMS5003;30612;38.304;23.786;2024-02-21T08:08:43;8.60;7.80;4.20
44881;PMS5003;30612;38.304;23.786;2024-02-21T08:11:10;8.00;8.00;4.00
44881;PMS5003;30612;38.304;23.786;2024-02-21T08:13:38;5.80;5.80;2.00
44881;PMS5003;30612;38.304;23.786;2024-02-21T08:16:05;5.00;5.00;2.00
44881;PMS5003;30612;38.304;23.786;2024-02-21T08:18:33;6.60;6.60;4.00
44881;PMS5003;30612;38.304;23.786;2024-02-21T08:21:03;8.60;8.00;4.00
44881;PMS5003;30612;38.304;23.786;2024-02-21T08:23:31;4.60;4.00;1.00
44881;PMS5003;30612;38.304;23.786;2024-02-21T08:25:59;4.00;4.00;2.00
44881;PMS5003;30612;38.304;23.786;2024-02-21T08:28:27;7.40;7.40;4.00
44881;PMS5003;30612;38.304;23.786;2024-02-21T08:30:57;10.20;9.00;2.80
44881;PMS5003;30612;38.304;23.786;2024-02-21T08:33:24;20.00;16.60;8.80
44881;PMS5003;30612;38.304;23.786;2024-02-21T08:35:52;16.00;13.80;8.00
44881;PMS5003;30612;38.304;23.786;2024-02-21T08:38:19;27.80;23.40;15.00
44881;PMS5003;30612;38.304;23.786;2024-02-21T08:40:47;19.20;13.00;8.20
44881;PMS5003;30612;38.304;23.786;2024-02-21T08:43:14;11.60;8.80;5.40
44881;PMS5003;30612;38.304;23.786;2024-02-21T08:45:41;8.40;8.40;5.00
44881;PMS5003;30612;38.304;23.786;2024-02-21T08:48:09;12.40;11.40;5.20
44881;PMS5003;30612;38.304;23.786;2024-02-21T08:50:36;9.20;8.20;6.00
44881;PMS5003;30612;38.304;23.786;2024-02-21T08:53:05;12.00;12.00;5.80
44881;PMS5003;30612;38.304;23.786;2024-02-21T08:55:33;8.40;7.60;5.00
44881;PMS5003;30612;38.304;23.786;2024-02-21T08:58:00;6.80;6.80;4.40
44881;PMS5003;30612;38.304;23.786;2024-02-21T09:00:27;10.60;10.60;5.40
44881;PMS5003;30612;38.304;23.786;2024-02-21T09:02:55;9.40;7.20;3.20
44881;PMS5003;30612;38.304;23.786;2024-02-21T09:05:23;6.00;6.00;3.40
44881;PMS5003;30612;38.304;23.786;2024-02-21T09:07:52;9.60;7.60;4.60
44881;PMS5003;30612;38.304;23.786;2024-02-21T09:10:20;10.80;9.40;5.00
44881;PMS5003;30612;38.304;23.786;2024-02-21T09:12:48;6.00;5.40;3.00
44881;PMS5003;30612;38.304;23.786;2024-02-21T09:15:15;10.80;7.40;5.00
44881;PMS5003;30612;38.304;23.786;2024-02-21T09:17:43;7.80;7.80;3.00
44881;PMS5003;30612;38.304;23.786;2024-02-21T09:20:10;6.40;6.40;5.00
44881;PMS5003;30612;38.304;23.786;2024-02-21T09:22:39;6.80;5.20;2.60
44881;PMS5003;30612;38.304;23.786;2024-02-21T09:25:07;6.60;5.40;2.40
44881;PMS5003;30612;38.304;23.786;2024-02-21T09:27:34;3.00;3.00;2.00
44881;PMS5003;30612;38.304;23.786;2024-02-21T09:30:02;3.00;3.00;2.00
44881;PMS5003;30612;38.304;23.786;2024-02-21T09:32:31;3.00;3.00;2.00
44881;PMS5003;30612;38.304;23.786;2024-02-21T09:35:02;4.20;3.80;2.00
44881;PMS5003;30612;38.304;23.786;2024-02-21T09:37:29;5.60;3.00;2.00
44881;PMS5003;30612;38.304;23.786;2024-02-21T09:39:57;7.40;7.40;3.00
44881;PMS5003;30612;38.304;23.786;2024-02-21T09:42:46;5.80;5.80;2.00
44881;PMS5003;30612;38.304;23.786;2024-02-21T09:45:18;9.80;6.80;5.00
44881;PMS5003;30612;38.304;23.786;2024-02-21T09:47:55;9.80;9.00;5.00
44881;PMS5003;30612;38.304;23.786;2024-02-21T09:50:24;9.00;9.00;4.60
44881;PMS5003;30612;38.304;23.786;2024-02-21T09:52:53;5.40;5.40;2.00
44881;PMS5003;30612;38.304;23.786;2024-02-21T09:55:21;3.20;3.20;1.60
44881;PMS5003;30612;38.304;23.786;2024-02-21T09:57:51;6.00;6.00;3.00
44881;PMS5003;30612;38.304;23.786;2024-02-21T10:00:19;4.20;4.20;2.20
44881;PMS5003;30612;38.304;23.786;2024-02-21T10:02:48;9.40;7.40;3.00
44881;PMS5003;30612;38.304;23.786;2024-02-21T10:05:17;5.60;5.60;3.00
44881;PMS5003;30612;38.304;23.786;2024-02-21T10:07:45;5.40;5.40;2.40
44881;PMS5003;30612;38.304;23.786;2024-02-21T10:10:12;13.40;13.40;7.20
44881;PMS5003;30612;38.304;23.786;2024-02-21T10:12:49;13.20;12.00;6.80
44881;PMS5003;30612;38.304;23.786;2024-02-21T10:15:20;13.80;10.00;5.80
44881;PMS5003;30612;38.304;23.786;2024-02-21T10:17:57;8.60;6.40;3.20
44881;PMS5003;30612;38.304;23.786;2024-02-21T10:20:25;9.60;7.80;5.00
44881;PMS5003;30612;38.304;23.786;2024-02-21T10:23:03;10.80;10.80;6.00
44881;PMS5003;30612;38.304;23.786;2024-02-21T10:25:36;12.60;9.40;5.80
44881;PMS5003;30612;38.304;23.786;2024-02-21T10:28:12;9.80;9.00;3.80
44881;PMS5003;30612;38.304;23.786;2024-02-21T10:30:49;8.60;8.00;4.40
44881;PMS5003;30612;38.304;23.786;2024-02-21T10:33:18;8.20;7.80;3.80
44881;PMS5003;30612;38.304;23.786;2024-02-21T10:35:49;9.20;8.80;3.80
44881;PMS5003;30612;38.304;23.786;2024-02-21T10:38:16;9.60;5.40;3.20
44881;PMS5003;30612;38.304;23.786;2024-02-21T10:40:44;11.40;11.40;5.00
44881;PMS5003;30612;38.304;23.786;2024-02-21T10:43:14;5.20;5.20;2.00
44881;PMS5003;30612;38.304;23.786;2024-02-21T10:45:45;8.40;6.20;3.20
44881;PMS5003;30612;38.304;23.786;2024-02-21T10:48:14;6.20;6.20;2.00
44881;PMS5003;30612;38.304;23.786;2024-02-21T10:53:53;10.40;9.20;5.00
44881;PMS5003;30612;38.304;23.786;2024-02-21T10:56:30;18.80;14.20;6.80
44881;PMS5003;30612;38.304;23.786;2024-02-21T10:58:58;13.40;11.80;6.00
44881;PMS5003;30612;38.304;23.786;2024-02-21T11:01:28;10.20;9.60;5.80
44881;PMS5003;30612;38.304;23.786;2024-02-21T11:04:01;14.00;13.40;9.20
44881;PMS5003;30612;38.304;23.786;2024-02-21T11:06:30;11.80;11.80;7.00
44881;PMS5003;30612;38.304;23.786;2024-02-21T11:09:09;9.00;9.00;4.40
44881;PMS5003;30612;38.304;23.786;2024-02-21T11:11:38;5.40;5.40;2.40
44881;PMS5003;30612;38.304;23.786;2024-02-21T11:14:08;11.60;9.80;4.20
44881;PMS5003;30612;38.304;23.786;2024-02-21T11:16:45;7.80;7.00;4.00
44881;PMS5003;30612;38.304;23.786;2024-02-21T11:19:23;7.20;7.20;3.40
44881;PMS5003;30612;38.304;23.786;2024-02-21T11:21:52;11.00;6.80;4.00
44881;PMS5003;30612;38.304;23.786;2024-02-21T11:24:28;10.40;9.20;5.80
44881;PMS5003;30612;38.304;23.786;2024-02-21T11:27:12;8.40;8.40;3.20
44881;PMS5003;30612;38.304;23.786;2024-02-21T11:29:45;9.00;6.40;3.00
44881;PMS5003;30612;38.304;23.786;2024-02-21T11:32:14;7.20;6.00;3.60
44881;PMS5003;30612;38.304;23.786;2024-02-21T11:37:33;10.20;7.00;3.00
44881;PMS5003;30612;38.304;23.786;2024-02-21T11:40:04;9.00;9.00;5.00
44881;PMS5003;30612;38.304;23.786;2024-02-21T11:42:38;10.80;8.20;4.20
44881;PMS5003;30612;38.304;23.786;2024-02-21T11:45:06;9.40;6.80;3.00
44881;PMS5003;30612;38.304;23.786;2024-02-21T11:47:36;10.60;9.20;5.00
44881;PMS5003;30612;38.304;23.786;2024-02-21T11:50:11;13.40;13.20;6.40
44881;PMS5003;30612;38.304;23.786;2024-02-21T11:52:42;10.40;10.40;5.80
44881;PMS5003;30612;38.304;23.786;2024-02-21T11:55:09;12.00;10.40;7.00
44881;PMS5003;30612;38.304;23.786;2024-02-21T11:57:38;11.00;11.00;6.00
44881;PMS5003;30612;38.304;23.786;2024-02-21T12:00:14;14.00;9.00;5.80
44881;PMS5003;30612;38.304;23.786;2024-02-21T12:02:46;12.20;10.60;6.00
44881;PMS5003;30612;38.304;23.786;2024-02-21T12:05:14;13.20;10.00;6.00
44881;PMS5003;30612;38.304;23.786;2024-02-21T12:07:42;10.00;8.60;5.00
44881;PMS5003;30612;38.304;23.786;2024-02-21T12:10:09;10.40;10.40;6.00
44881;PMS5003;30612;38.304;23.786;2024-02-21T12:12:38;12.20;11.80;6.00
44881;PMS5003;30612;38.304;23.786;2024-02-21T12:15:06;13.60;11.20;7.00
44881;PMS5003;30612;38.304;23.786;2024-02-21T12:17:34;6.00;6.00;3.00
44881;PMS5003;30612;38.304;23.786;2024-02-21T12:20:03;5.80;5.80;3.00
44881;PMS5003;30612;38.304;23.786;2024-02-21T12:22:37;15.20;14.40;9.60
44881;PMS5003;30612;38.304;23.786;2024-02-21T12:25:17;15.80;10.60;6.20
44881;PMS5003;30612;38.304;23.786;2024-02-21T12:27:53;14.00;12.00;8.60
44881;PMS5003;30612;38.304;23.786;2024-02-21T12:30:21;11.20;10.60;6.20
44881;PMS5003;30612;38.304;23.786;2024-02-21T12:32:49;19.00;18.00;10.00
44881;PMS5003;30612;38.304;23.786;2024-02-21T12:35:16;17.80;16.60;9.00
44881;PMS5003;30612;38.304;23.786;2024-02-21T12:37:45;11.80;11.40;7.20
44881;PMS5003;30612;38.304;23.786;2024-02-21T12:40:12;11.60;9.00;6.00
44881;PMS5003;30612;38.304;23.786;2024-02-21T12:42:41;13.40;9.20;6.00
44881;PMS5003;30612;38.304;23.786;2024-02-21T12:45:09;17.20;13.80;6.80
44881;PMS5003;30612;38.304;23.786;2024-02-21T12:47:37;14.20;10.40;5.60
44881;PMS5003;30612;38.304;23.786;2024-02-21T12:50:04;16.00;13.00;6.80
44881;PMS5003;30612;38.304;23.786;2024-02-21T12:52:34;10.20;9.20;5.00
44881;PMS5003;30612;38.304;23.786;2024-02-21T12:55:02;12.00;10.40;5.60
44881;PMS5003;30612;38.304;23.786;2024-02-21T12:57:29;12.20;12.20;6.00
44881;PMS5003;30612;38.304;23.786;2024-02-21T12:59:57;13.80;11.20;6.00
44881;PMS5003;30612;38.304;23.786;2024-02-21T13:02:24;15.40;12.00;8.00
44881;PMS5003;30612;38.304;23.786;2024-02-21T13:04:52;15.00;12.80;8.00
44881;PMS5003;30612;38.304;23.786;2024-02-21T13:07:20;13.40;13.00;5.00
44881;PMS5003;30612;38.304;23.786;2024-02-21T13:09:47;15.80;13.60;9.00
44881;PMS5003;30612;38.304;23.786;2024-02-21T13:12:15;14.00;13.00;6.40
44881;PMS5003;30612;38.304;23.786;2024-02-21T13:14:43;10.00;8.80;4.00
44881;PMS5003;30612;38.304;23.786;2024-02-21T13:17:11;9.40;6.80;2.00
44881;PMS5003;30612;38.304;23.786;2024-02-21T13:19:38;10.00;10.00;5.00
44881;PMS5003;30612;38.304;23.786;2024-02-21T13:22:06;12.40;8.60;5.60
44881;PMS5003;30612;38.304;23.786;2024-02-21T13:24:36;10.80;9.80;5.60
44881;PMS5003;30612;38.304;23.786;2024-02-21T13:27:04;11.20;11.20;6.00
44881;PMS5003;30612;38.304;23.786;2024-02-21T13:29:31;11.00;11.00;6.00
44881;PMS5003;30612;38.304;23.786;2024-02-21T13:31:58;15.60;12.80;6.80
44881;PMS5003;30612;38.304;23.786;2024-02-21T13:34:26;10.00;10.00;6.00
44881;PMS5003;30612;38.304;23.786;2024-02-21T13:36:54;18.00;15.40;9.20
44881;PMS5003;30612;38.304;23.786;2024-02-21T13:39:21;11.40;9.80;6.20
44881;PMS5003;30612;38.304;23.786;2024-02-21T13:41:49;13.00;10.00;6.20
44881;PMS5003;30612;38.304;23.786;2024-02-21T13:44:16;11.60;9.60;5.60
44881;PMS5003;30612;38.304;23.786;2024-02-21T13:46:44;10.20;10.20;5.20
44881;PMS5003;30612;38.304;23.786;2024-02-21T13:49:11;8.80;6.20;5.00
44881;PMS5003;30612;38.304;23.786;2024-02-21T13:51:39;17.80;12.00;6.00
44881;PMS5003;30612;38.304;23.786;2024-02-21T13:54:07;13.20;12.80;7.60
44881;PMS5003;30612;38.304;23.786;2024-02-21T13:56:36;10.40;9.40;4.80
44881;PMS5003;30612;38.304;23.786;2024-02-21T13:59:04;8.00;8.00;5.80
44881;PMS5003;30612;38.304;23.786;2024-02-21T14:01:31;12.00;12.00;5.20
44881;PMS5003;30612;38.304;23.786;2024-02-21T14:03:59;9.40;6.80;4.00
44881;PMS5003;30612;38.304;23.786;2024-02-21T14:06:27;8.60;8.60;4.40
44881;PMS5003;30612;38.304;23.786;2024-02-21T14:08:54;11.60;10.00;5.20
44881;PMS5003;30612;38.304;23.786;2024-02-21T14:11:22;10.00;9.00;6.00
44881;PMS5003;30612;38.304;23.786;2024-02-21T14:13:51;17.60;13.40;6.40